createdAt,value
2018-05-29T00:00:46.968Z,24.27
2018-05-29T00:03:16.657Z,17.63
2018-05-29T00:05:46.264Z,21.77
2018-05-29T00:08:15.865Z,24.67
2018-05-29T00:10:47.391Z,22.43
2018-05-29T00:13:16.925Z,27.00
2018-05-29T00:15:46.545Z,20.33
2018-05-29T00:18:16.089Z,20.47
2018-05-29T00:20:45.632Z,21.00
2018-05-29T00:23:15.196Z,23.27
2018-05-29T00:25:44.748Z,20.73
2018-05-29T00:28:14.368Z,25.40
2018-05-29T00:30:43.985Z,20.47
2018-05-29T00:33:13.573Z,27.93
2018-05-29T00:35:43.081Z,23.87
2018-05-29T00:38:12.782Z,26.00
2018-05-29T00:40:42.390Z,26.83
2018-05-29T00:43:11.950Z,30.00
2018-05-29T00:45:41.622Z,24.17
2018-05-29T00:48:11.314Z,23.50
2018-05-29T00:50:41.057Z,26.83
2018-05-29T00:53:10.635Z,24.57
2018-05-29T00:55:40.156Z,25.47
2018-05-29T00:58:09.702Z,25.60
2018-05-29T01:00:39.269Z,22.77
2018-05-29T01:03:08.781Z,30.90
2018-05-29T01:05:38.355Z,24.87
2018-05-29T01:08:07.891Z,29.73
2018-05-29T01:10:37.761Z,24.57
2018-05-29T01:13:07.398Z,25.87
2018-05-29T01:15:37.014Z,24.90
2018-05-29T01:18:06.580Z,35.20
2018-05-29T01:20:36.113Z,26.37
2018-05-29T01:23:06.584Z,32.40
2018-05-29T01:25:36.122Z,33.10
2018-05-29T01:28:05.809Z,43.57
2018-05-29T01:30:35.457Z,32.23
2018-05-29T01:33:05.686Z,29.17
2018-05-29T01:35:35.230Z,31.10
2018-05-29T01:38:05.685Z,31.37
2018-05-29T01:40:35.293Z,33.73
2018-05-29T01:43:04.892Z,33.97
2018-05-29T01:45:34.458Z,35.77
2018-05-29T01:48:03.989Z,34.23
2018-05-29T01:50:33.606Z,38.60
2018-05-29T01:53:03.218Z,33.43
2018-05-29T01:55:32.746Z,41.10
2018-05-29T01:58:02.312Z,38.00
2018-05-29T02:00:31.863Z,36.80
2018-05-29T02:03:01.391Z,39.27
2018-05-29T02:05:30.941Z,41.43
2018-05-29T02:08:00.478Z,34.00
2018-05-29T02:10:30.013Z,38.47
2018-05-29T02:12:59.557Z,38.87
2018-05-29T02:15:29.144Z,43.37
2018-05-29T02:17:58.692Z,33.57
2018-05-29T02:20:28.463Z,41.67
2018-05-29T02:22:58.961Z,34.57
2018-05-29T02:25:28.693Z,38.83
2018-05-29T02:27:58.301Z,40.90
2018-05-29T02:30:27.909Z,36.90
2018-05-29T02:32:57.521Z,39.23
2018-05-29T02:35:27.062Z,41.70
2018-05-29T02:37:56.653Z,37.17
2018-05-29T02:40:26.453Z,36.83
2018-05-29T02:42:56.054Z,38.80
2018-05-29T02:45:25.645Z,37.60
2018-05-29T02:47:55.257Z,39.30
2018-05-29T02:50:24.831Z,41.80
2018-05-29T02:52:54.427Z,37.77
2018-05-29T02:55:23.960Z,41.30
2018-05-29T02:57:53.489Z,40.40
2018-05-29T03:00:23.116Z,40.93
2018-05-29T03:02:52.642Z,39.83
2018-05-29T03:05:22.199Z,45.30
2018-05-29T03:07:51.800Z,45.77
2018-05-29T03:10:21.360Z,39.53
2018-05-29T03:12:50.931Z,35.63
2018-05-29T03:15:20.477Z,40.07
2018-05-29T03:17:50.134Z,42.03
2018-05-29T03:20:19.717Z,39.60
2018-05-29T03:22:49.371Z,45.83
2018-05-29T03:25:18.929Z,42.40
2018-05-29T03:27:48.537Z,43.53
2018-05-29T03:30:18.089Z,49.23
2018-05-29T03:32:47.670Z,44.23
2018-05-29T03:35:17.199Z,45.37
2018-05-29T03:37:46.726Z,41.63
2018-05-29T03:40:16.361Z,40.70
2018-05-29T03:42:46.181Z,46.07
2018-05-29T03:45:15.793Z,42.63
2018-05-29T03:47:45.390Z,51.10
2018-05-29T03:50:14.932Z,43.73
2018-05-29T03:52:44.509Z,41.23
2018-05-29T03:55:14.196Z,43.87
2018-05-29T03:57:43.742Z,38.20
2018-05-29T04:00:13.260Z,48.47
2018-05-29T04:02:42.829Z,44.73
2018-05-29T04:05:12.360Z,45.43
2018-05-29T04:07:42.761Z,44.90
2018-05-29T04:10:12.289Z,51.83
2018-05-29T04:12:41.825Z,52.23
2018-05-29T04:15:11.351Z,53.40
2018-05-29T04:17:40.901Z,44.67
2018-05-29T04:20:10.473Z,48.33
2018-05-29T04:22:40.012Z,49.67
2018-05-29T04:25:09.555Z,44.77
2018-05-29T04:27:39.184Z,57.47
2018-05-29T04:30:08.714Z,55.10
2018-05-29T04:32:38.392Z,45.53
2018-05-29T04:35:07.922Z,46.67
2018-05-29T04:37:37.541Z,44.73
2018-05-29T04:40:07.205Z,46.93
2018-05-29T04:42:36.830Z,46.87
2018-05-29T04:45:06.360Z,42.20
2018-05-29T04:47:36.053Z,49.90
2018-05-29T04:50:05.634Z,47.90
2018-05-29T04:52:35.245Z,46.23
2018-05-29T04:55:04.859Z,39.47
2018-05-29T04:57:34.455Z,37.30
2018-05-29T05:00:03.981Z,42.50
2018-05-29T05:02:31.976Z,45.90
2018-05-29T05:05:00.683Z,40.43
2018-05-29T05:07:28.845Z,40.47
2018-05-29T05:09:56.834Z,37.67
2018-05-29T05:12:24.909Z,40.03
2018-05-29T05:14:52.977Z,40.13
2018-05-29T05:17:21.870Z,43.00
2018-05-29T05:19:49.940Z,38.70
2018-05-29T05:22:19.585Z,41.23
2018-05-29T05:24:47.524Z,40.13
2018-05-29T05:27:15.583Z,44.47
2018-05-29T05:29:43.592Z,48.83
2018-05-29T05:32:11.568Z,40.70
2018-05-29T05:34:39.665Z,41.47
2018-05-29T05:37:08.745Z,39.30
2018-05-29T05:39:36.745Z,38.37
2018-05-29T05:42:06.047Z,38.30
2018-05-29T05:44:34.053Z,40.80
2018-05-29T05:47:02.082Z,44.70
2018-05-29T05:49:31.197Z,43.53
2018-05-29T05:51:59.180Z,53.33
2018-05-29T05:54:28.578Z,41.70
2018-05-29T05:56:56.492Z,40.07
2018-05-29T05:59:25.628Z,39.37
2018-05-29T06:01:53.686Z,39.70
2018-05-29T06:04:21.759Z,40.63
2018-05-29T06:06:50.886Z,40.40
2018-05-29T06:09:18.853Z,43.57
2018-05-29T06:11:46.878Z,38.23
2018-05-29T06:14:14.885Z,43.63
2018-05-29T06:16:42.921Z,35.73
2018-05-29T06:19:11.002Z,38.63
2018-05-29T06:21:40.182Z,46.37
2018-05-29T06:24:08.281Z,44.40
2018-05-29T06:26:36.285Z,37.37
2018-05-29T06:29:04.274Z,39.17
2018-05-29T06:31:32.364Z,41.57
2018-05-29T06:34:00.438Z,40.40
2018-05-29T06:36:28.427Z,38.20
2018-05-29T06:38:57.297Z,40.40
2018-05-29T06:41:25.282Z,37.60
2018-05-29T06:43:54.153Z,38.83
2018-05-29T06:46:22.134Z,38.97
2018-05-29T06:48:50.869Z,38.33
2018-05-29T06:51:18.941Z,36.60
2018-05-29T06:53:46.889Z,35.77
2018-05-29T06:56:14.930Z,36.80
2018-05-29T06:58:43.705Z,33.07
2018-05-29T07:01:11.705Z,35.30
2018-05-29T07:03:39.705Z,36.13
2018-05-29T07:06:08.876Z,39.13
2018-05-29T07:08:36.859Z,33.73
2018-05-29T07:11:04.863Z,36.70
2018-05-29T07:13:32.922Z,35.70
2018-05-29T07:16:00.938Z,37.03
2018-05-29T07:18:29.806Z,37.10
2018-05-29T07:20:57.849Z,33.80
2018-05-29T07:23:25.842Z,34.80
2018-05-29T07:25:54.719Z,34.53
2018-05-29T07:28:22.732Z,37.47
2018-05-29T07:30:50.705Z,29.17
2018-05-29T07:33:19.683Z,30.30
2018-05-29T07:35:47.701Z,38.17
2018-05-29T07:38:15.777Z,32.30
2018-05-29T07:40:43.849Z,31.97
2018-05-29T07:43:13.706Z,28.47
2018-05-29T07:45:41.686Z,26.83
2018-05-29T07:48:09.672Z,28.13
2018-05-29T07:50:37.766Z,32.33
2018-05-29T07:53:05.840Z,23.73
2018-05-29T07:55:33.879Z,29.53
2018-05-29T07:58:01.841Z,26.00
2018-05-29T08:00:29.912Z,25.83
2018-05-29T08:02:58.083Z,30.20
2018-05-29T08:05:26.074Z,27.37
2018-05-29T08:07:54.167Z,26.33
2018-05-29T08:10:22.230Z,21.63
2018-05-29T08:12:50.288Z,28.03
2018-05-29T08:15:18.262Z,23.90
2018-05-29T08:17:46.234Z,21.80
2018-05-29T08:20:14.229Z,18.90
2018-05-29T08:22:42.262Z,18.70
2018-05-29T08:25:11.154Z,25.17
2018-05-29T08:27:39.130Z,25.23
2018-05-29T08:30:07.125Z,20.53
2018-05-29T08:32:35.156Z,27.40
2018-05-29T08:35:04.641Z,17.07
2018-05-29T08:37:32.607Z,18.97
2018-05-29T08:40:00.617Z,19.33
2018-05-29T08:42:28.570Z,19.23
2018-05-29T08:44:58.065Z,23.17
2018-05-29T08:47:26.021Z,21.73
2018-05-29T08:49:54.011Z,26.67
2018-05-29T08:52:22.016Z,18.97
2018-05-29T08:54:50.050Z,27.37
2018-05-29T08:57:18.131Z,19.90
2018-05-29T08:59:46.195Z,25.23
2018-05-29T09:02:14.938Z,18.53
2018-05-29T09:04:43.031Z,24.40
2018-05-29T09:07:11.011Z,15.63
2018-05-29T09:09:39.071Z,15.33
2018-05-29T09:12:07.062Z,17.40
2018-05-29T09:14:35.838Z,17.80
2018-05-29T09:17:03.843Z,20.97
2018-05-29T09:19:31.985Z,20.47
2018-05-29T09:22:00.745Z,21.60
2018-05-29T09:24:29.798Z,17.47
2018-05-29T09:26:57.921Z,17.27
2018-05-29T09:29:25.885Z,17.10
2018-05-29T09:31:53.943Z,19.90
2018-05-29T09:34:22.748Z,18.23
2018-05-29T09:36:50.822Z,17.33
2018-05-29T09:39:19.586Z,17.90
2018-05-29T09:41:47.558Z,20.93
2018-05-29T09:44:15.544Z,17.93
2018-05-29T09:46:44.285Z,22.43
2018-05-29T09:49:12.401Z,17.30
2018-05-29T09:51:40.366Z,17.07
2018-05-29T09:54:09.098Z,15.03
2018-05-29T09:56:37.109Z,19.77
2018-05-29T09:59:05.079Z,16.13
2018-05-29T10:01:33.138Z,17.33
2018-05-29T10:04:01.237Z,15.60
2018-05-29T10:06:29.979Z,21.07
2018-05-29T10:08:57.994Z,15.73
2018-05-29T10:11:26.726Z,14.73
2018-05-29T10:13:54.825Z,21.43
2018-05-29T10:16:22.813Z,16.33
2018-05-29T10:18:51.577Z,16.23
2018-05-29T10:21:19.642Z,14.63
2018-05-29T10:23:47.721Z,15.40
2018-05-29T10:26:15.701Z,15.23
2018-05-29T10:28:44.461Z,19.33
2018-05-29T10:31:12.546Z,14.33
2018-05-29T10:33:41.348Z,13.83
2018-05-29T10:36:10.091Z,16.10
2018-05-29T10:38:38.099Z,13.87
2018-05-29T10:41:07.578Z,16.50
2018-05-29T10:43:35.638Z,15.00
2018-05-29T10:46:03.646Z,22.67
2018-05-29T10:48:32.422Z,17.53
2018-05-29T10:51:00.370Z,14.27
2018-05-29T10:53:28.433Z,13.27
2018-05-29T10:55:56.401Z,14.30
2018-05-29T10:58:24.442Z,14.03
2018-05-29T11:00:52.460Z,18.30
2018-05-29T11:03:20.420Z,21.03
2018-05-29T11:05:48.489Z,17.93
2018-05-29T11:08:16.469Z,17.23
2018-05-29T11:10:45.205Z,13.70
2018-05-29T11:13:13.950Z,15.73
2018-05-29T11:15:42.691Z,14.30
2018-05-29T11:18:10.807Z,17.33
2018-05-29T11:20:39.553Z,14.50
2018-05-29T11:23:07.630Z,13.93
2018-05-29T11:25:35.727Z,13.33
2018-05-29T11:28:03.763Z,17.13
2018-05-29T11:30:31.742Z,16.50
2018-05-29T11:32:59.820Z,18.30
2018-05-29T11:35:28.592Z,16.43
2018-05-29T11:37:58.194Z,14.30
2018-05-29T11:40:26.161Z,14.87
2018-05-29T11:42:54.138Z,15.20
2018-05-29T11:45:22.218Z,16.93
2018-05-29T11:47:50.273Z,15.07
2018-05-29T11:50:18.250Z,16.03
2018-05-29T11:52:46.303Z,14.00
2018-05-29T11:55:14.943Z,17.83
2018-05-29T11:57:42.932Z,17.43
2018-05-29T12:00:10.918Z,13.87
2018-05-29T12:02:38.929Z,12.93
2018-05-29T12:05:06.983Z,13.93
2018-05-29T12:07:34.956Z,13.93
2018-05-29T12:10:03.001Z,15.27
2018-05-29T12:12:30.982Z,13.07
2018-05-29T12:14:59.731Z,14.90
2018-05-29T12:17:27.824Z,14.83
2018-05-29T12:19:55.793Z,15.37
2018-05-29T12:22:24.060Z,16.70
2018-05-29T12:24:52.034Z,16.60
2018-05-29T12:27:20.009Z,16.60
2018-05-29T12:29:48.805Z,15.73
2018-05-29T12:32:17.570Z,14.73
2018-05-29T12:34:46.298Z,14.13
2018-05-29T12:37:14.353Z,15.37
2018-05-29T12:39:43.134Z,15.73
2018-05-29T12:42:11.877Z,15.07
2018-05-29T12:44:39.958Z,15.80
2018-05-29T12:47:08.096Z,16.70
2018-05-29T12:49:36.083Z,14.17
2018-05-29T12:52:04.069Z,13.73
2018-05-29T12:54:32.064Z,15.87
2018-05-29T12:57:00.826Z,21.77
2018-05-29T12:59:28.894Z,18.87
2018-05-29T13:01:56.963Z,19.67
2018-05-29T13:04:26.582Z,15.47
2018-05-29T13:06:54.636Z,14.20
2018-05-29T13:09:22.717Z,17.77
2018-05-29T13:11:51.468Z,13.27
2018-05-29T13:14:19.466Z,15.07
2018-05-29T13:16:47.532Z,14.10
2018-05-29T13:19:15.596Z,14.07
2018-05-29T13:21:43.594Z,18.63
2018-05-29T13:24:12.469Z,13.60
2018-05-29T13:26:41.243Z,18.40
2018-05-29T13:29:09.229Z,14.70
2018-05-29T13:31:37.408Z,14.33
2018-05-29T13:34:06.209Z,14.40
2018-05-29T13:36:34.180Z,13.90
2018-05-29T13:39:02.193Z,24.93
2018-05-29T13:41:30.173Z,19.50
2018-05-29T13:43:58.141Z,17.80
2018-05-29T13:46:26.214Z,15.20
2018-05-29T13:48:54.383Z,16.30
2018-05-29T13:51:22.453Z,13.07
2018-05-29T13:53:50.544Z,14.17
2018-05-29T13:56:19.307Z,20.10
2018-05-29T13:58:47.290Z,14.57
2018-05-29T14:01:15.558Z,14.30
2018-05-29T14:03:43.537Z,13.40
2018-05-29T14:06:12.294Z,14.23
2018-05-29T14:08:40.313Z,16.63
2018-05-29T14:11:09.054Z,16.50
2018-05-29T14:13:38.671Z,19.07
2018-05-29T14:16:08.311Z,25.93
2018-05-29T14:18:37.859Z,17.23
2018-05-29T14:21:07.404Z,34.07
2018-05-29T14:23:37.097Z,24.10
2018-05-29T14:26:06.629Z,24.10
2018-05-29T14:28:36.150Z,18.97
2018-05-29T14:31:05.685Z,27.03
2018-05-29T14:33:35.309Z,34.87
2018-05-29T14:36:05.853Z,35.57
2018-05-29T14:38:35.385Z,18.63
2018-05-29T14:41:04.993Z,20.60
2018-05-29T14:43:34.657Z,18.03
2018-05-29T14:46:04.200Z,15.20
2018-05-29T14:48:33.750Z,19.60
2018-05-29T14:51:03.285Z,49.50
2018-05-29T14:53:32.818Z,22.50
2018-05-29T14:56:02.358Z,23.77
2018-05-29T14:58:31.981Z,35.87
2018-05-29T15:01:01.694Z,28.53
2018-05-29T15:03:31.277Z,24.13
2018-05-29T15:06:01.091Z,24.30
2018-05-29T15:08:30.604Z,34.80
2018-05-29T15:11:00.131Z,31.53
2018-05-29T15:13:29.675Z,39.40
2018-05-29T15:15:59.223Z,39.80
2018-05-29T15:18:28.851Z,47.67
2018-05-29T15:20:58.383Z,45.80
2018-05-29T15:23:27.925Z,51.20
2018-05-29T15:25:57.449Z,46.53
2018-05-29T15:28:27.014Z,62.97
2018-05-29T15:30:56.549Z,56.33
2018-05-29T15:33:26.165Z,53.40
2018-05-29T15:35:55.705Z,43.20
2018-05-29T15:38:25.304Z,43.73
2018-05-29T15:40:55.141Z,37.43
2018-05-29T15:43:24.893Z,39.73
2018-05-29T15:45:54.429Z,45.60
2018-05-29T15:48:24.009Z,47.13
2018-05-29T15:50:53.564Z,51.60
2018-05-29T15:53:23.193Z,42.03
2018-05-29T15:55:52.736Z,48.20
2018-05-29T15:58:22.325Z,50.00
2018-05-29T16:00:52.015Z,49.50
2018-05-29T16:03:21.632Z,50.00
2018-05-29T16:05:52.108Z,44.67
2018-05-29T16:08:21.646Z,49.77
2018-05-29T16:10:51.222Z,51.43
2018-05-29T16:13:20.756Z,45.90
2018-05-29T16:15:50.383Z,44.43
2018-05-29T16:18:20.222Z,36.70
2018-05-29T16:20:49.799Z,37.47
2018-05-29T16:23:21.345Z,41.07
2018-05-29T16:25:50.940Z,34.23
2018-05-29T16:28:20.570Z,39.63
2018-05-29T16:30:50.158Z,36.90
2018-05-29T16:33:21.594Z,37.63
2018-05-29T16:35:51.179Z,30.33
2018-05-29T16:38:20.699Z,33.73
2018-05-29T16:40:50.338Z,35.27
2018-05-29T16:43:20.020Z,39.07
2018-05-29T16:45:49.577Z,40.30
2018-05-29T16:48:19.130Z,38.40
2018-05-29T16:50:48.671Z,46.10
2018-05-29T16:53:18.422Z,39.13
2018-05-29T16:55:47.944Z,47.90
2018-05-29T16:58:17.456Z,46.27
2018-05-29T17:00:47.009Z,44.43
2018-05-29T17:03:16.552Z,40.37
2018-05-29T17:05:46.412Z,40.07
2018-05-29T17:08:16.010Z,45.67
2018-05-29T17:10:45.540Z,40.63
2018-05-29T17:13:15.080Z,46.30
2018-05-29T17:15:44.718Z,52.07
2018-05-29T17:18:14.241Z,48.23
2018-05-29T17:20:43.868Z,47.40
2018-05-29T17:23:13.361Z,52.70
2018-05-29T17:25:42.927Z,45.17
2018-05-29T17:28:12.534Z,50.77
2018-05-29T17:30:42.060Z,52.63
2018-05-29T17:33:11.606Z,54.20
2018-05-29T17:35:41.137Z,56.30
2018-05-29T17:38:10.677Z,61.50
2018-05-29T17:40:40.270Z,59.20
2018-05-29T17:43:09.873Z,65.10
2018-05-29T17:45:39.481Z,69.43
2018-05-29T17:48:09.200Z,71.67
2018-05-29T17:50:38.784Z,68.37
2018-05-29T17:53:08.402Z,71.60
2018-05-29T17:55:37.961Z,66.10
2018-05-29T17:58:07.560Z,64.73
2018-05-29T18:00:37.098Z,67.27
2018-05-29T18:03:06.665Z,74.40
2018-05-29T18:05:36.189Z,74.27
2018-05-29T18:08:05.950Z,65.87
2018-05-29T18:10:35.469Z,55.50
2018-05-29T18:13:05.031Z,65.30
2018-05-29T18:15:34.698Z,69.73
2018-05-29T18:18:04.209Z,71.40
2018-05-29T18:20:34.770Z,70.63
2018-05-29T18:23:04.297Z,65.57
2018-05-29T18:25:33.928Z,67.73
2018-05-29T18:28:03.469Z,64.00
2018-05-29T18:30:33.085Z,58.63
2018-05-29T18:33:02.624Z,57.57
2018-05-29T18:35:32.194Z,72.70
2018-05-29T18:38:01.813Z,73.97
2018-05-29T18:40:31.409Z,85.00
2018-05-29T18:43:01.026Z,76.40
2018-05-29T18:45:30.653Z,73.50
2018-05-29T18:48:00.149Z,78.33
2018-05-29T18:50:29.700Z,75.53
2018-05-29T18:52:59.240Z,75.87
2018-05-29T18:55:28.774Z,73.20
2018-05-29T18:57:58.366Z,80.13
2018-05-29T19:00:27.857Z,78.13
2018-05-29T19:02:57.566Z,80.67
2018-05-29T19:05:27.080Z,79.77
2018-05-29T19:07:57.558Z,81.17
2018-05-29T19:10:27.104Z,77.90
2018-05-29T19:12:56.660Z,74.90
2018-05-29T19:15:26.313Z,71.27
2018-05-29T19:17:55.841Z,70.97
2018-05-29T19:20:25.373Z,74.43
2018-05-29T19:22:55.075Z,71.07
2018-05-29T19:25:24.568Z,69.97
2018-05-29T19:27:54.119Z,65.20
2018-05-29T19:30:23.652Z,66.47
2018-05-29T19:32:53.353Z,62.03
2018-05-29T19:35:22.949Z,64.40
2018-05-29T19:37:52.554Z,65.53
2018-05-29T19:40:22.163Z,63.20
2018-05-29T19:42:51.765Z,62.77
2018-05-29T19:45:21.293Z,60.57
2018-05-29T19:47:50.895Z,65.67
2018-05-29T19:50:20.418Z,64.10
2018-05-29T19:52:49.990Z,62.50
2018-05-29T19:55:19.534Z,61.87
2018-05-29T19:57:49.057Z,60.60
2018-05-29T20:00:18.693Z,60.10
2018-05-29T20:02:48.605Z,56.00
2018-05-29T20:05:18.136Z,57.77
2018-05-29T20:07:47.925Z,61.83
2018-05-29T20:10:17.478Z,63.83
2018-05-29T20:12:46.999Z,70.90
2018-05-29T20:15:16.606Z,64.37
2018-05-29T20:17:46.270Z,73.40
2018-05-29T20:20:15.917Z,61.00
2018-05-29T20:22:45.436Z,69.63
2018-05-29T20:25:15.062Z,64.83
2018-05-29T20:27:45.537Z,66.77
2018-05-29T20:30:15.222Z,75.80
2018-05-29T20:32:44.756Z,76.50
2018-05-29T20:35:14.278Z,68.43
2018-05-29T20:37:43.916Z,76.60
2018-05-29T20:40:13.477Z,72.33
2018-05-29T20:42:43.005Z,70.80
2018-05-29T20:45:12.643Z,66.07
2018-05-29T20:47:42.401Z,73.27
2018-05-29T20:50:11.922Z,74.70
2018-05-29T20:52:41.445Z,66.67
2018-05-29T20:55:10.987Z,71.37
2018-05-29T20:57:40.560Z,78.83
2018-05-29T21:00:10.101Z,78.97
2018-05-29T21:02:39.660Z,76.83
2018-05-29T21:07:03.306Z,82.20
2018-05-29T21:09:32.851Z,74.63
2018-05-29T21:12:02.482Z,66.07
2018-05-29T21:14:31.999Z,74.20
2018-05-29T21:17:01.557Z,71.93
2018-05-29T21:19:31.101Z,73.23
2018-05-29T21:22:00.787Z,65.67
2018-05-29T21:24:30.418Z,67.87
2018-05-29T21:26:59.985Z,66.37
2018-05-29T21:29:29.612Z,62.43
2018-05-29T21:31:59.193Z,67.13
2018-05-29T21:34:28.921Z,63.50
2018-05-29T21:36:58.522Z,55.60
2018-05-29T21:39:28.121Z,54.20
2018-05-29T21:41:57.666Z,49.43
2018-05-29T21:44:27.229Z,50.73
2018-05-29T21:46:56.835Z,54.87
2018-05-29T21:49:26.407Z,59.60
2018-05-29T21:51:56.037Z,44.17
2018-05-29T21:54:25.873Z,46.40
2018-05-29T21:56:55.401Z,53.10
2018-05-29T21:59:24.925Z,51.27
2018-05-29T22:01:54.565Z,53.50
2018-05-29T22:04:24.100Z,53.37
2018-05-29T22:06:53.649Z,61.50
2018-05-29T22:09:23.281Z,50.23
2018-05-29T22:11:52.814Z,49.43
2018-05-29T22:14:22.357Z,43.47
2018-05-29T22:16:51.888Z,47.37
2018-05-29T22:19:21.429Z,50.97
2018-05-29T22:21:50.974Z,56.07
2018-05-29T22:24:20.616Z,64.53
2018-05-29T22:26:50.141Z,55.10
2018-05-29T22:29:19.827Z,48.73
2018-05-29T22:31:49.349Z,63.40
2018-05-29T22:34:18.897Z,67.50
2018-05-29T22:36:48.442Z,63.50
2018-05-29T22:39:18.045Z,64.40
2018-05-29T22:41:47.658Z,66.23
2018-05-29T22:44:17.278Z,61.97
2018-05-29T22:46:46.839Z,69.10
2018-05-29T22:49:16.570Z,66.73
2018-05-29T22:51:46.106Z,66.03
2018-05-29T22:54:15.833Z,69.53
2018-05-29T22:56:45.375Z,60.60
2018-05-29T22:59:15.094Z,64.10
2018-05-29T23:01:44.627Z,67.97
2018-05-29T23:04:14.225Z,68.67
2018-05-29T23:06:43.772Z,66.20
2018-05-29T23:09:13.308Z,79.03
2018-05-29T23:11:43.845Z,59.10
2018-05-29T23:14:13.398Z,64.00
2018-05-29T23:16:42.937Z,61.97
2018-05-29T23:19:12.790Z,65.07
2018-05-29T23:21:42.928Z,60.97
2018-05-29T23:24:12.426Z,65.77
2018-05-29T23:26:41.981Z,63.63
2018-05-29T23:29:11.597Z,58.23
2018-05-29T23:31:42.121Z,64.57
2018-05-29T23:34:11.909Z,71.37
2018-05-29T23:36:42.146Z,64.07
2018-05-29T23:39:12.681Z,72.70
2018-05-29T23:41:42.285Z,57.03
2018-05-29T23:44:11.897Z,57.87
2018-05-29T23:46:41.498Z,63.27
2018-05-29T23:49:11.109Z,71.27
2018-05-29T23:51:40.650Z,60.40
2018-05-29T23:54:10.218Z,62.10
2018-05-29T23:56:39.748Z,63.30
2018-05-29T23:59:09.278Z,58.67
